createdAt,value
2019-01-29T00:00:01.132Z,86.07
2019-01-29T00:02:34.435Z,96.23
2019-01-29T00:05:05.728Z,89.27
2019-01-29T00:07:37.652Z,96.77
2019-01-29T00:10:09.072Z,100.80
2019-01-29T00:12:39.312Z,102.77
2019-01-29T00:15:11.670Z,95.03
2019-01-29T00:17:42.228Z,87.60
2019-01-29T00:20:13.220Z,103.93
2019-01-29T00:22:44.817Z,97.97
2019-01-29T00:25:15.023Z,97.60
2019-01-29T00:27:46.799Z,115.03
2019-01-29T00:30:17.017Z,111.73
2019-01-29T00:32:47.255Z,97.03
2019-01-29T00:35:17.469Z,90.07
2019-01-29T00:37:47.694Z,86.67
2019-01-29T00:40:19.121Z,86.40
2019-01-29T00:42:49.356Z,91.60
2019-01-29T00:45:19.561Z,89.37
2019-01-29T00:47:49.806Z,91.93
2019-01-29T00:50:20.014Z,79.43
2019-01-29T00:52:50.255Z,74.43
2019-01-29T00:55:20.461Z,75.23
2019-01-29T00:57:51.622Z,73.50
2019-01-29T01:00:23.770Z,67.83
2019-01-29T01:02:55.134Z,77.97
2019-01-29T01:05:25.342Z,71.73
2019-01-29T01:07:55.582Z,69.23
2019-01-29T01:10:25.787Z,68.57
2019-01-29T01:12:56.020Z,71.00
2019-01-29T01:15:27.153Z,65.87
2019-01-29T01:17:57.403Z,70.97
2019-01-29T01:20:27.608Z,72.47
2019-01-29T01:22:57.834Z,69.03
2019-01-29T01:25:28.040Z,69.13
2019-01-29T01:27:58.286Z,72.53
2019-01-29T01:30:28.501Z,65.70
2019-01-29T01:32:58.720Z,68.40
2019-01-29T01:35:28.936Z,65.23
2019-01-29T01:37:59.167Z,69.57
2019-01-29T01:40:29.384Z,73.17
2019-01-29T01:42:59.613Z,70.43
2019-01-29T01:45:29.818Z,67.97
2019-01-29T01:48:00.061Z,71.03
2019-01-29T01:50:30.270Z,65.97
2019-01-29T01:53:00.502Z,79.67
2019-01-29T01:55:30.705Z,72.20
2019-01-29T01:58:00.943Z,65.20
2019-01-29T02:00:31.165Z,75.43
2019-01-29T02:03:01.402Z,73.60
2019-01-29T02:05:31.608Z,68.80
2019-01-29T02:08:01.841Z,69.20
2019-01-29T02:10:32.056Z,68.20
2019-01-29T02:13:02.284Z,74.00
2019-01-29T02:15:32.493Z,68.40
2019-01-29T02:18:03.602Z,62.37
2019-01-29T02:20:33.849Z,68.50
2019-01-29T02:23:08.148Z,67.43
2019-01-29T02:25:36.153Z,65.30
2019-01-29T02:28:06.651Z,63.53
2019-01-29T02:30:36.896Z,62.37
2019-01-29T02:33:07.135Z,81.43
2019-01-29T02:35:37.346Z,94.17
2019-01-29T02:38:07.579Z,82.70
2019-01-29T02:40:37.784Z,67.03
2019-01-29T02:43:08.026Z,57.80
2019-01-29T02:45:38.233Z,55.63
2019-01-29T02:48:08.487Z,56.67
2019-01-29T02:50:38.692Z,54.20
2019-01-29T02:53:17.787Z,54.57
2019-01-29T02:55:40.960Z,49.63
2019-01-29T02:58:11.524Z,44.03
2019-01-29T03:00:41.737Z,42.10
2019-01-29T03:03:11.962Z,40.40
2019-01-29T03:05:42.170Z,38.10
2019-01-29T03:08:13.021Z,27.50
2019-01-29T03:10:44.139Z,36.87
2019-01-29T03:13:14.382Z,37.00
2019-01-29T03:15:44.595Z,31.40
2019-01-29T03:18:14.822Z,28.23
2019-01-29T03:20:45.027Z,25.77
2019-01-29T03:23:15.269Z,30.00
2019-01-29T03:25:45.475Z,24.80
2019-01-29T03:28:15.705Z,23.33
2019-01-29T03:30:45.919Z,27.00
2019-01-29T03:33:16.185Z,26.17
2019-01-29T03:35:46.364Z,23.97
2019-01-29T03:38:16.603Z,18.27
2019-01-29T03:40:46.811Z,23.97
2019-01-29T03:43:17.053Z,23.60
2019-01-29T03:45:47.260Z,19.43
2019-01-29T03:48:17.495Z,24.40
2019-01-29T03:50:47.693Z,26.93
2019-01-29T03:53:18.860Z,19.67
2019-01-29T03:55:49.065Z,20.97
2019-01-29T03:58:20.240Z,20.03
2019-01-29T04:00:50.436Z,21.77
2019-01-29T04:03:20.685Z,18.50
2019-01-29T04:05:50.879Z,19.63
2019-01-29T04:08:21.120Z,13.63
2019-01-29T04:10:51.327Z,13.13
2019-01-29T04:13:21.556Z,18.03
2019-01-29T04:15:51.761Z,13.63
2019-01-29T04:18:22.008Z,13.70
2019-01-29T04:20:52.216Z,12.23
2019-01-29T04:23:22.453Z,14.80
2019-01-29T04:25:52.653Z,11.63
2019-01-29T04:28:22.893Z,14.00
2019-01-29T04:30:53.097Z,11.90
2019-01-29T04:33:23.335Z,14.07
2019-01-29T04:35:55.175Z,13.23
2019-01-29T04:38:25.400Z,12.93
2019-01-29T04:40:56.752Z,11.37
2019-01-29T04:43:26.992Z,14.67
2019-01-29T04:45:57.195Z,15.07
2019-01-29T04:48:27.437Z,15.43
2019-01-29T04:50:57.640Z,15.70
2019-01-29T04:53:27.885Z,14.23
2019-01-29T04:55:59.706Z,13.40
2019-01-29T04:58:30.783Z,11.20
2019-01-29T05:01:00.997Z,14.13
2019-01-29T05:03:31.238Z,14.10
2019-01-29T05:06:01.435Z,17.57
2019-01-29T05:08:32.603Z,18.77
2019-01-29T05:11:02.809Z,18.97
2019-01-29T05:13:33.051Z,24.27
2019-01-29T05:16:20.209Z,15.53
2019-01-29T05:19:29.709Z,14.70
2019-01-29T05:21:59.918Z,11.07
2019-01-29T05:24:31.480Z,13.33
2019-01-29T05:27:01.888Z,17.60
2019-01-29T05:29:32.139Z,19.90
2019-01-29T05:32:03.869Z,20.70
2019-01-29T05:34:34.117Z,18.10
2019-01-29T05:37:04.316Z,20.53
2019-01-29T05:39:34.561Z,20.40
2019-01-29T05:42:04.766Z,24.13
2019-01-29T05:44:35.006Z,17.63
2019-01-29T05:47:05.215Z,21.87
2019-01-29T05:49:35.464Z,24.03
2019-01-29T05:52:06.582Z,19.30
2019-01-29T05:54:37.744Z,17.93
2019-01-29T05:57:08.028Z,21.70
2019-01-29T05:59:38.543Z,19.03
2019-01-29T06:02:09.324Z,29.57
2019-01-29T06:04:40.780Z,27.10
2019-01-29T06:07:11.909Z,27.20
2019-01-29T06:09:43.073Z,24.03
2019-01-29T06:12:14.194Z,21.83
2019-01-29T06:14:47.825Z,19.80
2019-01-29T06:17:27.203Z,22.37
2019-01-29T06:19:52.870Z,15.63
2019-01-29T06:22:24.362Z,17.73
2019-01-29T06:24:56.692Z,19.73
2019-01-29T06:27:27.847Z,21.97
2019-01-29T06:29:58.974Z,23.07
2019-01-29T06:32:30.411Z,19.10
2019-01-29T06:35:01.574Z,21.43
2019-01-29T06:37:32.696Z,21.07
2019-01-29T06:40:04.027Z,23.47
2019-01-29T06:42:34.366Z,21.73
2019-01-29T06:45:07.808Z,27.93
2019-01-29T06:47:38.194Z,33.03
2019-01-29T06:50:15.054Z,35.60
2019-01-29T06:52:45.398Z,47.57
2019-01-29T06:55:19.731Z,36.33
2019-01-29T06:57:55.368Z,33.87
2019-01-29T07:00:29.855Z,39.60
2019-01-29T07:03:00.749Z,29.20
2019-01-29T07:05:32.205Z,46.30
2019-01-29T07:08:03.649Z,40.50
2019-01-29T07:10:34.809Z,28.27
2019-01-29T07:13:05.306Z,34.10
2019-01-29T07:15:53.366Z,35.30
2019-01-29T07:18:40.087Z,21.23
2019-01-29T07:21:12.264Z,22.67
2019-01-29T07:23:42.781Z,38.47
2019-01-29T07:26:13.929Z,24.13
2019-01-29T07:28:45.064Z,22.97
2019-01-29T07:31:16.247Z,23.73
2019-01-29T07:33:46.494Z,26.57
2019-01-29T07:36:18.325Z,20.67
2019-01-29T07:38:48.534Z,20.23
2019-01-29T07:41:18.776Z,23.07
2019-01-29T07:43:48.981Z,23.57
2019-01-29T07:46:19.210Z,24.37
2019-01-29T07:48:49.425Z,47.17
2019-01-29T07:51:19.657Z,32.30
2019-01-29T07:53:49.884Z,44.90
2019-01-29T07:56:20.111Z,34.53
2019-01-29T07:58:50.328Z,33.70
2019-01-29T08:01:20.578Z,21.80
2019-01-29T08:03:50.813Z,33.03
2019-01-29T08:06:21.073Z,19.27
2019-01-29T08:08:51.299Z,21.80
2019-01-29T08:11:21.530Z,19.70
2019-01-29T08:13:51.812Z,26.23
2019-01-29T08:16:22.986Z,24.13
2019-01-29T08:18:54.119Z,23.90
2019-01-29T08:21:25.282Z,22.47
2019-01-29T08:23:56.395Z,27.73
2019-01-29T08:26:27.890Z,29.40
2019-01-29T08:28:59.293Z,18.60
2019-01-29T08:31:30.463Z,21.67
2019-01-29T08:34:00.701Z,29.23
2019-01-29T08:36:32.141Z,35.90
2019-01-29T08:39:05.265Z,25.13
2019-01-29T08:41:35.687Z,21.93
2019-01-29T08:44:07.079Z,26.47
2019-01-29T08:46:37.360Z,31.97
2019-01-29T08:49:08.760Z,21.07
2019-01-29T08:51:39.913Z,19.93
2019-01-29T08:54:12.274Z,26.33
2019-01-29T08:56:43.469Z,20.80
2019-01-29T08:59:15.800Z,19.13
2019-01-29T09:01:49.102Z,19.70
2019-01-29T09:04:20.243Z,19.50
2019-01-29T09:06:51.416Z,14.77
2019-01-29T09:09:22.845Z,11.67
2019-01-29T09:11:53.086Z,17.97
2019-01-29T09:14:24.523Z,22.10
2019-01-29T09:16:54.755Z,21.63
2019-01-29T09:19:24.971Z,23.10
2019-01-29T09:21:57.348Z,20.77
2019-01-29T09:24:27.607Z,23.53
2019-01-29T09:26:59.028Z,38.17
2019-01-29T09:29:30.467Z,19.97
2019-01-29T09:32:01.944Z,27.80
2019-01-29T09:34:32.188Z,16.60
2019-01-29T09:37:03.604Z,25.73
2019-01-29T09:39:35.013Z,15.17
2019-01-29T09:42:07.270Z,23.13
2019-01-29T09:44:37.617Z,19.20
2019-01-29T09:47:09.261Z,17.03
2019-01-29T09:49:39.600Z,19.10
2019-01-29T09:52:10.751Z,19.23
2019-01-29T09:54:41.880Z,14.57
2019-01-29T09:57:14.897Z,14.53
2019-01-29T09:59:46.016Z,17.17
2019-01-29T10:02:18.415Z,19.50
2019-01-29T10:04:49.835Z,21.33
2019-01-29T10:07:21.001Z,19.27
2019-01-29T10:09:52.122Z,19.57
2019-01-29T10:12:23.294Z,22.33
2019-01-29T10:14:54.403Z,28.13
2019-01-29T10:17:26.036Z,14.97
2019-01-29T10:20:02.821Z,28.03
2019-01-29T10:22:30.923Z,22.27
2019-01-29T10:25:03.667Z,14.43
2019-01-29T10:27:35.999Z,11.33
2019-01-29T10:30:10.648Z,21.37
2019-01-29T10:32:41.063Z,16.83
2019-01-29T10:35:23.309Z,14.53
2019-01-29T10:37:54.702Z,18.50
2019-01-29T10:40:27.456Z,15.60
2019-01-29T10:42:58.887Z,22.23
2019-01-29T10:45:31.022Z,14.03
2019-01-29T10:48:04.011Z,20.43
2019-01-29T10:50:34.547Z,11.70
2019-01-29T10:53:06.653Z,16.80
2019-01-29T10:55:47.428Z,22.57
2019-01-29T10:58:18.916Z,13.57
2019-01-29T11:00:50.036Z,9.87
2019-01-29T11:03:21.532Z,12.20
2019-01-29T11:05:52.933Z,13.60
2019-01-29T11:08:29.373Z,8.13
2019-01-29T11:11:01.216Z,11.57
2019-01-29T11:13:33.760Z,15.17
2019-01-29T11:16:04.037Z,18.80
2019-01-29T11:18:39.331Z,12.97
2019-01-29T11:21:10.764Z,13.80
2019-01-29T11:23:46.279Z,13.03
2019-01-29T11:26:23.156Z,13.13
2019-01-29T11:28:54.148Z,11.40
2019-01-29T11:31:24.363Z,11.33
2019-01-29T11:33:54.596Z,13.07
2019-01-29T11:36:26.229Z,19.10
2019-01-29T11:38:58.110Z,16.23
2019-01-29T11:41:28.309Z,32.20
2019-01-29T11:44:00.573Z,19.37
2019-01-29T11:46:30.610Z,24.00
2019-01-29T11:49:02.723Z,29.07
2019-01-29T11:51:32.867Z,25.97
2019-01-29T11:54:03.115Z,24.33
2019-01-29T11:56:33.324Z,25.23
2019-01-29T11:59:05.565Z,26.00
2019-01-29T12:01:37.448Z,28.27
2019-01-29T12:04:09.848Z,28.93
2019-01-29T12:06:41.283Z,37.23
2019-01-29T12:09:11.527Z,22.57
2019-01-29T12:11:42.964Z,28.77
2019-01-29T12:14:13.208Z,19.80
2019-01-29T12:16:43.427Z,23.70
2019-01-29T12:19:13.657Z,29.17
2019-01-29T12:21:45.077Z,17.27
2019-01-29T12:24:19.818Z,17.90
2019-01-29T12:26:56.296Z,21.33
2019-01-29T12:29:26.528Z,21.80
2019-01-29T12:31:57.953Z,16.27
2019-01-29T12:34:29.434Z,34.07
2019-01-29T12:37:02.834Z,18.17
2019-01-29T12:39:37.911Z,19.60
2019-01-29T12:42:09.290Z,47.20
2019-01-29T12:44:39.525Z,52.00
2019-01-29T12:47:10.964Z,39.87
2019-01-29T12:49:44.334Z,54.10
2019-01-29T12:52:17.332Z,46.73
2019-01-29T12:54:49.320Z,42.20
2019-01-29T12:57:22.812Z,21.30
2019-01-29T12:59:53.146Z,18.00
2019-01-29T13:02:23.361Z,31.57
2019-01-29T13:04:57.045Z,36.27
2019-01-29T13:07:30.960Z,46.77
2019-01-29T13:10:01.396Z,36.23
2019-01-29T13:12:32.520Z,42.00
2019-01-29T13:15:06.266Z,33.47
2019-01-29T13:17:36.658Z,16.63
2019-01-29T13:20:10.400Z,17.60
2019-01-29T13:22:40.783Z,12.80
2019-01-29T13:25:12.962Z,13.50
2019-01-29T13:27:44.305Z,11.40
2019-01-29T13:30:26.613Z,17.90
2019-01-29T13:32:57.967Z,22.00
2019-01-29T13:35:33.267Z,38.57
2019-01-29T13:38:03.621Z,14.70
2019-01-29T13:40:34.786Z,13.77
2019-01-29T13:43:05.731Z,16.10
2019-01-29T13:45:37.522Z,11.47
2019-01-29T13:48:10.678Z,17.90
2019-01-29T13:50:44.975Z,26.33
2019-01-29T13:53:16.340Z,51.27
2019-01-29T13:55:46.587Z,30.37
2019-01-29T13:58:16.803Z,30.80
2019-01-29T14:00:47.029Z,24.57
2019-01-29T14:03:18.634Z,19.10
2019-01-29T14:05:49.910Z,24.47
2019-01-29T14:08:20.106Z,24.10
2019-01-29T14:10:50.423Z,38.80
2019-01-29T14:13:28.270Z,31.50
2019-01-29T14:15:58.521Z,30.63
2019-01-29T14:18:30.844Z,29.27
2019-01-29T14:21:01.086Z,26.87
2019-01-29T14:23:31.310Z,30.97
2019-01-29T14:26:03.472Z,29.40
2019-01-29T14:28:37.164Z,39.90
2019-01-29T14:31:07.547Z,79.27
2019-01-29T14:33:41.863Z,56.67
2019-01-29T14:36:22.734Z,44.00
2019-01-29T14:39:21.184Z,56.80
2019-01-29T14:41:54.172Z,53.90
2019-01-29T14:44:24.411Z,203.27
2019-01-29T14:46:55.872Z,51.10
2019-01-29T14:49:28.087Z,75.80
2019-01-29T14:51:59.984Z,43.47
2019-01-29T14:54:31.429Z,42.53
2019-01-29T14:57:01.701Z,291.20
2019-01-29T14:59:33.106Z,117.80
2019-01-29T15:02:03.365Z,26.70
2019-01-29T15:04:33.603Z,32.13
2019-01-29T15:07:04.720Z,41.63
2019-01-29T15:09:37.063Z,26.90
2019-01-29T15:12:07.376Z,45.23
2019-01-29T15:14:37.827Z,36.03
2019-01-29T15:17:10.261Z,22.60
2019-01-29T15:19:41.634Z,39.20
2019-01-29T15:22:11.890Z,37.67
2019-01-29T15:24:43.310Z,41.07
2019-01-29T15:27:13.558Z,72.27
2019-01-29T15:29:47.332Z,49.87
2019-01-29T15:32:21.350Z,48.87
2019-01-29T15:34:55.789Z,56.23
2019-01-29T15:37:26.120Z,51.90
2019-01-29T15:39:57.561Z,50.23
2019-01-29T15:42:27.802Z,54.90
2019-01-29T15:44:59.214Z,55.83
2019-01-29T15:47:32.245Z,73.50
2019-01-29T15:50:06.591Z,77.83
2019-01-29T15:52:36.987Z,79.33
2019-01-29T15:55:11.605Z,88.17
2019-01-29T15:57:42.095Z,110.60
2019-01-29T16:00:18.520Z,94.20
2019-01-29T16:02:50.600Z,104.23
2019-01-29T16:05:26.268Z,92.17
2019-01-29T16:07:57.365Z,88.23
2019-01-29T16:10:45.541Z,66.33
2019-01-29T16:13:20.678Z,91.33
2019-01-29T16:15:59.257Z,127.67
2019-01-29T16:18:30.699Z,203.00
2019-01-29T16:21:01.339Z,301.80
2019-01-29T16:23:35.066Z,203.97
2019-01-29T16:26:05.885Z,294.07
2019-01-29T16:28:36.309Z,254.20
2019-01-29T16:31:07.757Z,210.97
2019-01-29T16:33:38.742Z,180.03
2019-01-29T16:36:09.131Z,129.43
2019-01-29T16:38:41.506Z,125.17
2019-01-29T16:41:12.945Z,142.53
2019-01-29T16:43:44.422Z,115.40
2019-01-29T16:46:14.681Z,122.37
2019-01-29T16:48:45.304Z,100.40
2019-01-29T16:51:17.301Z,98.70
2019-01-29T16:53:47.745Z,98.60
2019-01-29T16:56:19.167Z,93.80
2019-01-29T16:58:49.446Z,83.03
2019-01-29T17:01:19.673Z,67.43
2019-01-29T17:03:51.468Z,67.50
2019-01-29T17:06:21.948Z,108.60
2019-01-29T17:08:52.488Z,126.53
2019-01-29T17:11:22.738Z,142.27
2019-01-29T17:13:53.228Z,153.33
2019-01-29T17:16:27.450Z,194.73
2019-01-29T17:18:58.903Z,164.83
2019-01-29T17:21:29.125Z,128.20
2019-01-29T17:24:00.569Z,160.30
2019-01-29T17:26:31.979Z,214.20
2019-01-29T17:29:02.359Z,195.77
2019-01-29T17:31:34.603Z,188.07
2019-01-29T17:34:06.070Z,197.93
2019-01-29T17:36:37.513Z,200.80
2019-01-29T17:39:09.780Z,219.90
2019-01-29T17:41:40.112Z,229.73
2019-01-29T17:44:10.424Z,244.80
2019-01-29T17:46:42.696Z,261.33
2019-01-29T17:49:15.245Z,244.40
2019-01-29T17:51:48.164Z,260.60
2019-01-29T17:54:20.131Z,236.77
2019-01-29T17:56:50.764Z,212.00
2019-01-29T17:59:21.222Z,214.93
2019-01-29T18:01:54.322Z,197.33
2019-01-29T18:04:27.568Z,206.97
2019-01-29T18:06:57.964Z,224.83
2019-01-29T18:09:28.842Z,277.67
2019-01-29T18:11:59.461Z,290.90
2019-01-29T18:14:32.440Z,286.17
2019-01-29T18:17:02.846Z,266.00
2019-01-29T18:19:33.090Z,260.57
2019-01-29T18:22:04.526Z,266.60
2019-01-29T18:24:35.700Z,261.83
2019-01-29T18:27:08.049Z,269.17
2019-01-29T18:29:38.312Z,278.27
2019-01-29T18:32:09.734Z,296.00
2019-01-29T18:34:41.354Z,348.87
2019-01-29T18:37:11.716Z,354.13
2019-01-29T18:39:43.177Z,323.70
2019-01-29T18:42:16.225Z,372.43
2019-01-29T18:44:46.478Z,472.17
2019-01-29T18:47:16.938Z,454.47
2019-01-29T18:49:51.245Z,439.70
2019-01-29T18:52:22.973Z,481.40
2019-01-29T18:54:53.423Z,455.03
2019-01-29T18:57:23.941Z,431.03
2019-01-29T18:59:56.626Z,458.10
2019-01-29T19:02:27.145Z,344.33
2019-01-29T19:04:58.626Z,282.27
2019-01-29T19:07:30.056Z,301.83
2019-01-29T19:10:04.480Z,322.90
2019-01-29T19:12:34.791Z,308.37
2019-01-29T19:15:08.370Z,279.50
2019-01-29T19:17:40.879Z,360.63
2019-01-29T19:20:14.159Z,191.10
2019-01-29T19:22:44.868Z,279.87
2019-01-29T19:25:16.496Z,321.23
2019-01-29T19:27:46.915Z,253.93
2019-01-29T19:30:19.988Z,343.23
2019-01-29T19:32:50.099Z,423.47
2019-01-29T19:35:23.114Z,389.67
2019-01-29T19:37:54.526Z,323.23
2019-01-29T19:40:24.800Z,287.30
2019-01-29T19:42:56.190Z,260.73
2019-01-29T19:45:32.481Z,215.30
2019-01-29T19:48:06.891Z,223.60
2019-01-29T19:50:38.842Z,192.73
2019-01-29T19:53:09.148Z,204.10
2019-01-29T19:55:42.238Z,182.40
2019-01-29T19:58:12.601Z,186.23
2019-01-29T20:00:43.262Z,142.90
2019-01-29T20:03:15.884Z,156.23
2019-01-29T20:05:48.483Z,125.20
2019-01-29T20:08:18.707Z,118.00
2019-01-29T20:10:50.368Z,162.87
2019-01-29T20:13:22.329Z,175.83
2019-01-29T20:15:58.416Z,185.77
2019-01-29T20:18:28.983Z,194.57
2019-01-29T20:21:00.974Z,233.10
2019-01-29T20:23:31.692Z,118.93
2019-01-29T20:26:03.482Z,110.43
2019-01-29T20:28:42.176Z,97.70
2019-01-29T20:31:05.890Z,97.73
2019-01-29T20:33:40.762Z,114.23
2019-01-29T20:36:11.141Z,118.67
2019-01-29T20:38:43.830Z,117.13
2019-01-29T20:41:14.322Z,184.13
2019-01-29T20:43:44.598Z,214.93
2019-01-29T20:46:15.462Z,172.80
2019-01-29T20:48:46.715Z,149.40
2019-01-29T20:51:17.084Z,148.47
2019-01-29T20:53:48.741Z,153.53
2019-01-29T20:56:20.886Z,165.00
2019-01-29T20:58:53.129Z,155.03
2019-01-29T21:01:24.160Z,165.70
2019-01-29T21:03:54.930Z,156.77
2019-01-29T21:06:26.474Z,101.10
2019-01-29T21:08:58.161Z,117.47
2019-01-29T21:11:32.541Z,163.00
2019-01-29T21:14:04.444Z,176.40
2019-01-29T21:16:35.951Z,155.17
2019-01-29T21:19:06.432Z,122.97
2019-01-29T21:21:39.407Z,99.47
2019-01-29T21:24:10.870Z,123.43
2019-01-29T21:26:41.511Z,126.57
2019-01-29T21:29:12.853Z,134.10
2019-01-29T21:31:45.341Z,143.83
2019-01-29T21:34:15.757Z,130.10
2019-01-29T21:36:48.694Z,136.67
2019-01-29T21:39:18.978Z,106.30
2019-01-29T21:41:50.389Z,112.83
2019-01-29T21:44:20.916Z,105.13
2019-01-29T21:46:51.190Z,100.30
2019-01-29T21:49:21.726Z,116.23
2019-01-29T21:51:54.683Z,159.27
2019-01-29T21:54:26.093Z,194.47
2019-01-29T21:56:56.339Z,182.83
2019-01-29T21:59:28.215Z,123.43
2019-01-29T22:01:58.632Z,113.07
2019-01-29T22:04:33.788Z,84.70
2019-01-29T22:07:06.746Z,82.33
2019-01-29T22:09:43.586Z,87.83
2019-01-29T22:12:15.023Z,95.90
2019-01-29T22:14:45.384Z,80.63
2019-01-29T22:17:15.926Z,94.77
2019-01-29T22:19:47.767Z,98.90
2019-01-29T22:22:18.241Z,100.70
2019-01-29T22:24:49.657Z,108.97
2019-01-29T22:27:25.526Z,126.93
2019-01-29T22:29:57.490Z,123.33
2019-01-29T22:32:30.607Z,103.10
2019-01-29T22:35:00.843Z,111.13
2019-01-29T22:37:31.087Z,89.83
2019-01-29T22:40:01.315Z,95.87
2019-01-29T22:42:31.730Z,90.43
2019-01-29T22:45:02.012Z,81.57
2019-01-29T22:47:32.425Z,85.70
2019-01-29T22:50:02.631Z,85.43
2019-01-29T22:52:32.944Z,69.93
2019-01-29T22:55:07.753Z,74.40
2019-01-29T22:57:37.981Z,64.87
2019-01-29T23:00:49.402Z,94.60
2019-01-29T23:03:42.042Z,72.43
2019-01-29T23:06:15.514Z,91.63
2019-01-29T23:08:45.760Z,103.63
2019-01-29T23:11:15.992Z,92.97
2019-01-29T23:13:47.145Z,96.83
2019-01-29T23:16:17.352Z,97.73
2019-01-29T23:18:48.373Z,97.17
2019-01-29T23:21:18.602Z,81.67
2019-01-29T23:23:48.829Z,82.40
2019-01-29T23:26:19.207Z,88.53
2019-01-29T23:28:49.432Z,89.30
2019-01-29T23:31:19.662Z,71.97
2019-01-29T23:33:49.930Z,64.70
2019-01-29T23:36:20.147Z,62.30
2019-01-29T23:38:50.567Z,69.63
2019-01-29T23:41:20.786Z,75.60
2019-01-29T23:43:51.015Z,85.80
2019-01-29T23:46:22.492Z,70.57
2019-01-29T23:48:52.735Z,73.50
2019-01-29T23:51:24.210Z,72.80
2019-01-29T23:53:54.432Z,60.90
2019-01-29T23:56:26.108Z,77.77
2019-01-29T23:58:56.341Z,88.50
